sensor_id;sensor_type;location;lat;lon;timestamp;temperature;humidity
58666;DHT22;44436;52.872;6.520;2022-08-19T00:01:51;18.30;97.20
58666;DHT22;44436;52.872;6.520;2022-08-19T00:04:19;18.20;97.30
58666;DHT22;44436;52.872;6.520;2022-08-19T00:06:46;18.30;97.30
58666;DHT22;44436;52.872;6.520;2022-08-19T00:09:15;18.30;97.30
58666;DHT22;44436;52.872;6.520;2022-08-19T00:11:42;18.30;97.20
58666;DHT22;44436;52.872;6.520;2022-08-19T00:14:10;18.30;97.30
58666;DHT22;44436;52.872;6.520;2022-08-19T00:16:40;18.20;97.30
58666;DHT22;44436;52.872;6.520;2022-08-19T00:19:07;18.20;97.40
58666;DHT22;44436;52.872;6.520;2022-08-19T00:21:33;18.10;97.40
58666;DHT22;44436;52.872;6.520;2022-08-19T00:24:04;18.10;97.40
58666;DHT22;44436;52.872;6.520;2022-08-19T00:26:30;18.20;97.40
58666;DHT22;44436;52.872;6.520;2022-08-19T00:28:55;18.20;97.20
58666;DHT22;44436;52.872;6.520;2022-08-19T00:31:21;18.20;97.10
58666;DHT22;44436;52.872;6.520;2022-08-19T00:33:47;18.20;97.10
58666;DHT22;44436;52.872;6.520;2022-08-19T00:36:16;18.10;97.20
58666;DHT22;44436;52.872;6.520;2022-08-19T00:38:41;18.10;97.40
58666;DHT22;44436;52.872;6.520;2022-08-19T00:41:18;18.00;97.60
58666;DHT22;44436;52.872;6.520;2022-08-19T00:46:37;18.00;97.80
58666;DHT22;44436;52.872;6.520;2022-08-19T00:49:11;17.90;97.70
58666;DHT22;44436;52.872;6.520;2022-08-19T00:51:41;18.00;97.70
58666;DHT22;44436;52.872;6.520;2022-08-19T00:54:08;18.00;97.60
58666;DHT22;44436;52.872;6.520;2022-08-19T00:56:35;17.90;97.70
58666;DHT22;44436;52.872;6.520;2022-08-19T00:59:02;17.90;97.80
58666;DHT22;44436;52.872;6.520;2022-08-19T01:01:34;17.90;97.70
58666;DHT22;44436;52.872;6.520;2022-08-19T01:04:00;17.90;97.80
58666;DHT22;44436;52.872;6.520;2022-08-19T01:06:26;17.80;97.80
58666;DHT22;44436;52.872;6.520;2022-08-19T01:08:53;17.80;97.90
58666;DHT22;44436;52.872;6.520;2022-08-19T01:11:19;17.80;98.00
58666;DHT22;44436;52.872;6.520;2022-08-19T01:13:46;17.70;98.10
58666;DHT22;44436;52.872;6.520;2022-08-19T01:16:12;17.60;98.20
58666;DHT22;44436;52.872;6.520;2022-08-19T01:18:41;17.60;98.30
58666;DHT22;44436;52.872;6.520;2022-08-19T01:23:44;17.50;98.50
58666;DHT22;44436;52.872;6.520;2022-08-19T01:26:18;17.40;98.70
58666;DHT22;44436;52.872;6.520;2022-08-19T01:28:46;17.30;98.80
58666;DHT22;44436;52.872;6.520;2022-08-19T01:31:15;17.30;98.80
58666;DHT22;44436;52.872;6.520;2022-08-19T01:33:42;17.40;98.90
58666;DHT22;44436;52.872;6.520;2022-08-19T01:36:21;17.40;98.80
58666;DHT22;44436;52.872;6.520;2022-08-19T01:38:48;17.40;98.70
58666;DHT22;44436;52.872;6.520;2022-08-19T01:41:14;17.40;98.80
58666;DHT22;44436;52.872;6.520;2022-08-19T01:43:42;17.30;98.80
58666;DHT22;44436;52.872;6.520;2022-08-19T01:46:07;17.30;98.80
58666;DHT22;44436;52.872;6.520;2022-08-19T01:48:39;17.30;98.80
58666;DHT22;44436;52.872;6.520;2022-08-19T01:51:05;17.20;98.90
58666;DHT22;44436;52.872;6.520;2022-08-19T01:53:31;17.20;99.00
58666;DHT22;44436;52.872;6.520;2022-08-19T01:55:58;17.20;99.00
58666;DHT22;44436;52.872;6.520;2022-08-19T01:58:29;17.20;99.00
58666;DHT22;44436;52.872;6.520;2022-08-19T02:00:56;17.20;99.00
58666;DHT22;44436;52.872;6.520;2022-08-19T02:03:22;17.20;99.00
58666;DHT22;44436;52.872;6.520;2022-08-19T02:05:55;17.20;99.10
58666;DHT22;44436;52.872;6.520;2022-08-19T02:08:21;17.30;99.00
58666;DHT22;44436;52.872;6.520;2022-08-19T02:10:46;17.20;98.80
58666;DHT22;44436;52.872;6.520;2022-08-19T02:13:13;17.30;98.80
58666;DHT22;44436;52.872;6.520;2022-08-19T02:15:39;17.20;99.20
58666;DHT22;44436;52.872;6.520;2022-08-19T02:18:06;17.10;99.00
58666;DHT22;44436;52.872;6.520;2022-08-19T02:20:34;17.10;99.20
58666;DHT22;44436;52.872;6.520;2022-08-19T02:22:59;17.10;99.20
58666;DHT22;44436;52.872;6.520;2022-08-19T02:25:27;17.10;99.10
58666;DHT22;44436;52.872;6.520;2022-08-19T02:27:52;17.10;99.10
58666;DHT22;44436;52.872;6.520;2022-08-19T02:30:20;17.10;99.20
58666;DHT22;44436;52.872;6.520;2022-08-19T02:32:46;17.00;99.10
58666;DHT22;44436;52.872;6.520;2022-08-19T02:35:13;17.00;99.20
58666;DHT22;44436;52.872;6.520;2022-08-19T02:37:39;16.90;99.20
58666;DHT22;44436;52.872;6.520;2022-08-19T02:40:23;16.90;99.40
58666;DHT22;44436;52.872;6.520;2022-08-19T02:42:49;16.80;99.50
58666;DHT22;44436;52.872;6.520;2022-08-19T02:45:15;16.70;99.70
58666;DHT22;44436;52.872;6.520;2022-08-19T02:47:40;16.70;99.80
58666;DHT22;44436;52.872;6.520;2022-08-19T02:50:07;16.70;99.80
58666;DHT22;44436;52.872;6.520;2022-08-19T02:52:33;16.80;99.80
58666;DHT22;44436;52.872;6.520;2022-08-19T02:54:59;16.80;99.70
58666;DHT22;44436;52.872;6.520;2022-08-19T02:57:26;16.70;99.70
58666;DHT22;44436;52.872;6.520;2022-08-19T02:59:52;16.70;99.80
58666;DHT22;44436;52.872;6.520;2022-08-19T03:02:19;16.70;99.90
58666;DHT22;44436;52.872;6.520;2022-08-19T03:04:44;16.70;99.80
58666;DHT22;44436;52.872;6.520;2022-08-19T03:07:14;16.70;99.80
58666;DHT22;44436;52.872;6.520;2022-08-19T03:09:40;16.70;99.90
58666;DHT22;44436;52.872;6.520;2022-08-19T03:12:05;16.60;99.90
58666;DHT22;44436;52.872;6.520;2022-08-19T03:14:32;16.60;99.90
58666;DHT22;44436;52.872;6.520;2022-08-19T03:16:58;16.60;99.90
58666;DHT22;44436;52.872;6.520;2022-08-19T03:19:24;16.60;99.90
58666;DHT22;44436;52.872;6.520;2022-08-19T03:21:50;16.70;99.90
58666;DHT22;44436;52.872;6.520;2022-08-19T03:24:17;16.60;99.90
58666;DHT22;44436;52.872;6.520;2022-08-19T03:26:49;16.70;99.90
58666;DHT22;44436;52.872;6.520;2022-08-19T03:29:16;16.70;99.80
58666;DHT22;44436;52.872;6.520;2022-08-19T03:31:43;16.70;99.80
58666;DHT22;44436;52.872;6.520;2022-08-19T03:34:22;16.70;99.80
58666;DHT22;44436;52.872;6.520;2022-08-19T03:36:48;16.70;99.90
58666;DHT22;44436;52.872;6.520;2022-08-19T03:39:14;16.60;99.90
58666;DHT22;44436;52.872;6.520;2022-08-19T03:41:43;16.60;99.90
58666;DHT22;44436;52.872;6.520;2022-08-19T03:44:08;16.50;99.90
58666;DHT22;44436;52.872;6.520;2022-08-19T03:46:35;16.60;99.90
58666;DHT22;44436;52.872;6.520;2022-08-19T03:49:03;16.50;99.90
58666;DHT22;44436;52.872;6.520;2022-08-19T03:51:37;16.50;99.90
58666;DHT22;44436;52.872;6.520;2022-08-19T03:54:07;16.50;99.90
58666;DHT22;44436;52.872;6.520;2022-08-19T03:56:37;16.40;99.90
58666;DHT22;44436;52.872;6.520;2022-08-19T03:59:06;16.50;99.90
58666;DHT22;44436;52.872;6.520;2022-08-19T04:01:32;16.40;99.90
58666;DHT22;44436;52.872;6.520;2022-08-19T04:03:59;16.40;99.90
58666;DHT22;44436;52.872;6.520;2022-08-19T04:06:27;16.40;99.90
58666;DHT22;44436;52.872;6.520;2022-08-19T04:08:55;16.40;99.90
58666;DHT22;44436;52.872;6.520;2022-08-19T04:11:23;16.40;99.90
58666;DHT22;44436;52.872;6.520;2022-08-19T04:13:50;16.30;99.90
58666;DHT22;44436;52.872;6.520;2022-08-19T04:16:20;16.40;99.90
58666;DHT22;44436;52.872;6.520;2022-08-19T04:18:47;16.30;99.90
58666;DHT22;44436;52.872;6.520;2022-08-19T04:21:20;16.30;99.90
58666;DHT22;44436;52.872;6.520;2022-08-19T04:23:47;16.30;99.90
58666;DHT22;44436;52.872;6.520;2022-08-19T04:26:20;16.20;99.90
58666;DHT22;44436;52.872;6.520;2022-08-19T04:28:46;16.10;99.90
58666;DHT22;44436;52.872;6.520;2022-08-19T04:31:19;16.00;99.90
58666;DHT22;44436;52.872;6.520;2022-08-19T04:33:45;16.00;99.90
58666;DHT22;44436;52.872;6.520;2022-08-19T04:36:17;15.90;99.90
58666;DHT22;44436;52.872;6.520;2022-08-19T04:38:47;15.80;99.90
58666;DHT22;44436;52.872;6.520;2022-08-19T04:41:13;15.80;99.90
58666;DHT22;44436;52.872;6.520;2022-08-19T04:43:57;15.80;99.90
58666;DHT22;44436;52.872;6.520;2022-08-19T04:46:23;15.80;99.90
58666;DHT22;44436;52.872;6.520;2022-08-19T04:48:49;15.70;99.90
58666;DHT22;44436;52.872;6.520;2022-08-19T04:51:14;15.70;99.90
58666;DHT22;44436;52.872;6.520;2022-08-19T04:53:41;15.70;99.90
58666;DHT22;44436;52.872;6.520;2022-08-19T04:56:12;15.70;99.90
58666;DHT22;44436;52.872;6.520;2022-08-19T04:58:40;15.70;99.90
58666;DHT22;44436;52.872;6.520;2022-08-19T05:01:09;15.70;99.90
58666;DHT22;44436;52.872;6.520;2022-08-19T05:03:35;15.70;99.90
58666;DHT22;44436;52.872;6.520;2022-08-19T05:06:10;15.70;99.90
58666;DHT22;44436;52.872;6.520;2022-08-19T05:08:37;15.80;99.90
58666;DHT22;44436;52.872;6.520;2022-08-19T05:11:13;15.80;99.90
58666;DHT22;44436;52.872;6.520;2022-08-19T05:13:40;15.80;99.90
58666;DHT22;44436;52.872;6.520;2022-08-19T05:16:05;15.80;99.90
58666;DHT22;44436;52.872;6.520;2022-08-19T05:18:31;15.90;99.90
58666;DHT22;44436;52.872;6.520;2022-08-19T05:21:18;15.90;99.90
58666;DHT22;44436;52.872;6.520;2022-08-19T05:24:04;15.90;99.90
58666;DHT22;44436;52.872;6.520;2022-08-19T05:26:34;15.90;99.90
58666;DHT22;44436;52.872;6.520;2022-08-19T05:29:00;15.90;99.90
58666;DHT22;44436;52.872;6.520;2022-08-19T05:31:25;15.90;99.90
58666;DHT22;44436;52.872;6.520;2022-08-19T05:33:51;16.00;99.90
58666;DHT22;44436;52.872;6.520;2022-08-19T05:36:16;16.00;99.90
58666;DHT22;44436;52.872;6.520;2022-08-19T05:38:44;16.00;99.90
58666;DHT22;44436;52.872;6.520;2022-08-19T05:41:11;16.10;99.90
58666;DHT22;44436;52.872;6.520;2022-08-19T05:43:37;16.10;99.90
58666;DHT22;44436;52.872;6.520;2022-08-19T05:46:03;16.20;99.90
58666;DHT22;44436;52.872;6.520;2022-08-19T05:48:32;16.30;99.90
58666;DHT22;44436;52.872;6.520;2022-08-19T05:51:04;16.20;99.90
58666;DHT22;44436;52.872;6.520;2022-08-19T05:53:31;16.40;99.90
58666;DHT22;44436;52.872;6.520;2022-08-19T05:55:58;16.40;99.90
58666;DHT22;44436;52.872;6.520;2022-08-19T05:58:23;16.60;99.90
58666;DHT22;44436;52.872;6.520;2022-08-19T06:00:50;16.60;99.90
58666;DHT22;44436;52.872;6.520;2022-08-19T06:03:16;16.70;99.90
58666;DHT22;44436;52.872;6.520;2022-08-19T06:05:42;16.80;99.90
58666;DHT22;44436;52.872;6.520;2022-08-19T06:08:08;16.90;99.90
58666;DHT22;44436;52.872;6.520;2022-08-19T06:10:33;17.00;99.90
58666;DHT22;44436;52.872;6.520;2022-08-19T06:12:59;17.00;99.90
58666;DHT22;44436;52.872;6.520;2022-08-19T06:15:25;17.10;99.90
58666;DHT22;44436;52.872;6.520;2022-08-19T06:17:53;17.10;99.90
58666;DHT22;44436;52.872;6.520;2022-08-19T06:20:19;17.20;99.90
58666;DHT22;44436;52.872;6.520;2022-08-19T06:22:48;17.30;99.90
58666;DHT22;44436;52.872;6.520;2022-08-19T06:25:17;17.40;99.90
58666;DHT22;44436;52.872;6.520;2022-08-19T06:27:43;17.50;99.90
58666;DHT22;44436;52.872;6.520;2022-08-19T06:30:10;17.60;99.90
58666;DHT22;44436;52.872;6.520;2022-08-19T06:32:37;17.60;99.90
58666;DHT22;44436;52.872;6.520;2022-08-19T06:35:04;17.70;99.90
58666;DHT22;44436;52.872;6.520;2022-08-19T06:37:30;17.70;99.90
58666;DHT22;44436;52.872;6.520;2022-08-19T06:39:56;17.80;99.90
58666;DHT22;44436;52.872;6.520;2022-08-19T06:42:21;17.90;99.90
58666;DHT22;44436;52.872;6.520;2022-08-19T06:44:47;17.90;99.90
58666;DHT22;44436;52.872;6.520;2022-08-19T06:47:18;18.00;99.90
58666;DHT22;44436;52.872;6.520;2022-08-19T06:49:45;18.10;99.90
58666;DHT22;44436;52.872;6.520;2022-08-19T06:52:12;18.20;99.90
58666;DHT22;44436;52.872;6.520;2022-08-19T06:54:40;18.30;99.90
58666;DHT22;44436;52.872;6.520;2022-08-19T06:57:07;18.40;99.90
58666;DHT22;44436;52.872;6.520;2022-08-19T06:59:34;18.40;99.90
58666;DHT22;44436;52.872;6.520;2022-08-19T07:02:04;18.50;99.90
58666;DHT22;44436;52.872;6.520;2022-08-19T07:04:35;18.70;99.90
58666;DHT22;44436;52.872;6.520;2022-08-19T07:07:09;18.80;99.90
58666;DHT22;44436;52.872;6.520;2022-08-19T07:09:39;18.90;99.90
58666;DHT22;44436;52.872;6.520;2022-08-19T07:12:07;19.00;99.90
58666;DHT22;44436;52.872;6.520;2022-08-19T07:14:33;19.10;99.90
58666;DHT22;44436;52.872;6.520;2022-08-19T07:17:05;19.20;99.90
58666;DHT22;44436;52.872;6.520;2022-08-19T07:19:31;19.30;99.90
58666;DHT22;44436;52.872;6.520;2022-08-19T07:22:00;19.40;99.90
58666;DHT22;44436;52.872;6.520;2022-08-19T07:24:28;19.50;99.90
58666;DHT22;44436;52.872;6.520;2022-08-19T07:26:56;19.50;99.90
58666;DHT22;44436;52.872;6.520;2022-08-19T07:29:22;19.60;99.90
58666;DHT22;44436;52.872;6.520;2022-08-19T07:31:50;19.70;99.90
58666;DHT22;44436;52.872;6.520;2022-08-19T07:34:16;19.80;99.90
58666;DHT22;44436;52.872;6.520;2022-08-19T07:36:42;19.80;99.90
58666;DHT22;44436;52.872;6.520;2022-08-19T07:39:15;19.90;99.90
58666;DHT22;44436;52.872;6.520;2022-08-19T07:41:42;20.00;99.90
58666;DHT22;44436;52.872;6.520;2022-08-19T07:44:08;20.00;99.90
58666;DHT22;44436;52.872;6.520;2022-08-19T07:46:38;20.10;99.90
58666;DHT22;44436;52.872;6.520;2022-08-19T07:49:06;20.20;99.90
58666;DHT22;44436;52.872;6.520;2022-08-19T07:51:32;20.30;99.90
58666;DHT22;44436;52.872;6.520;2022-08-19T07:53:58;20.50;99.90
58666;DHT22;44436;52.872;6.520;2022-08-19T07:56:24;20.60;99.90
58666;DHT22;44436;52.872;6.520;2022-08-19T07:58:51;20.70;99.90
58666;DHT22;44436;52.872;6.520;2022-08-19T08:01:24;20.70;99.90
58666;DHT22;44436;52.872;6.520;2022-08-19T08:03:52;20.90;99.90
58666;DHT22;44436;52.872;6.520;2022-08-19T08:06:37;20.90;99.90
58666;DHT22;44436;52.872;6.520;2022-08-19T08:09:28;21.00;99.90
58666;DHT22;44436;52.872;6.520;2022-08-19T08:12:02;21.10;99.90
58666;DHT22;44436;52.872;6.520;2022-08-19T08:14:42;21.20;99.90
58666;DHT22;44436;52.872;6.520;2022-08-19T08:17:10;21.30;99.70
58666;DHT22;44436;52.872;6.520;2022-08-19T08:19:36;21.40;99.60
58666;DHT22;44436;52.872;6.520;2022-08-19T08:22:03;21.50;99.80
58666;DHT22;44436;52.872;6.520;2022-08-19T08:24:31;21.60;99.40
58666;DHT22;44436;52.872;6.520;2022-08-19T08:26:59;21.70;99.20
58666;DHT22;44436;52.872;6.520;2022-08-19T08:29:26;21.70;99.10
58666;DHT22;44436;52.872;6.520;2022-08-19T08:31:53;21.80;98.70
58666;DHT22;44436;52.872;6.520;2022-08-19T08:34:20;21.90;98.50
58666;DHT22;44436;52.872;6.520;2022-08-19T08:36:46;22.00;98.40
58666;DHT22;44436;52.872;6.520;2022-08-19T08:39:15;22.10;98.50
58666;DHT22;44436;52.872;6.520;2022-08-19T08:41:58;22.20;97.90
58666;DHT22;44436;52.872;6.520;2022-08-19T08:44:36;22.20;97.40
58666;DHT22;44436;52.872;6.520;2022-08-19T08:47:11;22.30;97.20
58666;DHT22;44436;52.872;6.520;2022-08-19T08:50:01;22.40;97.10
58666;DHT22;44436;52.872;6.520;2022-08-19T08:52:37;22.50;96.60
58666;DHT22;44436;52.872;6.520;2022-08-19T08:55:11;22.60;96.10
58666;DHT22;44436;52.872;6.520;2022-08-19T08:57:48;22.60;95.90
58666;DHT22;44436;52.872;6.520;2022-08-19T09:00:38;22.70;95.70
58666;DHT22;44436;52.872;6.520;2022-08-19T09:03:19;22.80;95.50
58666;DHT22;44436;52.872;6.520;2022-08-19T09:05:59;22.80;95.30
58666;DHT22;44436;52.872;6.520;2022-08-19T09:08:46;22.90;95.00
58666;DHT22;44436;52.872;6.520;2022-08-19T09:11:29;23.00;95.20
58666;DHT22;44436;52.872;6.520;2022-08-19T09:14:12;23.10;94.70
58666;DHT22;44436;52.872;6.520;2022-08-19T09:16:39;23.20;94.50
58666;DHT22;44436;52.872;6.520;2022-08-19T09:19:07;23.20;94.30
58666;DHT22;44436;52.872;6.520;2022-08-19T09:21:33;23.20;94.10
58666;DHT22;44436;52.872;6.520;2022-08-19T09:24:01;23.30;93.90
58666;DHT22;44436;52.872;6.520;2022-08-19T09:26:27;23.40;93.60
58666;DHT22;44436;52.872;6.520;2022-08-19T09:28:53;23.40;93.50
58666;DHT22;44436;52.872;6.520;2022-08-19T09:31:23;23.50;93.90
58666;DHT22;44436;52.872;6.520;2022-08-19T09:33:49;23.60;92.80
58666;DHT22;44436;52.872;6.520;2022-08-19T09:36:18;23.70;92.80
58666;DHT22;44436;52.872;6.520;2022-08-19T09:38:45;23.80;92.30
58666;DHT22;44436;52.872;6.520;2022-08-19T09:41:15;23.80;92.50
58666;DHT22;44436;52.872;6.520;2022-08-19T09:43:44;24.00;92.40
58666;DHT22;44436;52.872;6.520;2022-08-19T09:46:11;24.00;92.00
58666;DHT22;44436;52.872;6.520;2022-08-19T09:48:38;24.10;92.00
58666;DHT22;44436;52.872;6.520;2022-08-19T09:51:06;24.10;91.70
58666;DHT22;44436;52.872;6.520;2022-08-19T09:53:34;24.20;91.40
58666;DHT22;44436;52.872;6.520;2022-08-19T09:55:59;24.30;91.50
58666;DHT22;44436;52.872;6.520;2022-08-19T09:58:25;24.40;91.20
58666;DHT22;44436;52.872;6.520;2022-08-19T10:00:54;24.40;91.00
58666;DHT22;44436;52.872;6.520;2022-08-19T10:03:20;24.50;90.90
58666;DHT22;44436;52.872;6.520;2022-08-19T10:05:46;24.60;90.90
58666;DHT22;44436;52.872;6.520;2022-08-19T10:08:17;24.60;90.60
58666;DHT22;44436;52.872;6.520;2022-08-19T10:10:44;24.70;90.90
58666;DHT22;44436;52.872;6.520;2022-08-19T10:13:10;24.80;90.90
58666;DHT22;44436;52.872;6.520;2022-08-19T10:15:36;24.90;90.30
58666;DHT22;44436;52.872;6.520;2022-08-19T10:18:05;24.90;89.60
58666;DHT22;44436;52.872;6.520;2022-08-19T10:20:31;25.00;89.10
58666;DHT22;44436;52.872;6.520;2022-08-19T10:22:56;25.00;88.20
58666;DHT22;44436;52.872;6.520;2022-08-19T10:25:24;25.10;88.70
58666;DHT22;44436;52.872;6.520;2022-08-19T10:27:51;25.20;88.40
58666;DHT22;44436;52.872;6.520;2022-08-19T10:30:17;25.30;88.60
58666;DHT22;44436;52.872;6.520;2022-08-19T10:32:44;25.40;88.10
58666;DHT22;44436;52.872;6.520;2022-08-19T10:35:11;25.50;87.70
58666;DHT22;44436;52.872;6.520;2022-08-19T10:37:38;25.50;87.10
58666;DHT22;44436;52.872;6.520;2022-08-19T10:40:08;25.60;87.30
58666;DHT22;44436;52.872;6.520;2022-08-19T10:42:36;25.70;86.40
58666;DHT22;44436;52.872;6.520;2022-08-19T10:45:04;25.80;84.80
58666;DHT22;44436;52.872;6.520;2022-08-19T10:47:32;25.80;83.70
58666;DHT22;44436;52.872;6.520;2022-08-19T10:49:58;25.70;83.70
58666;DHT22;44436;52.872;6.520;2022-08-19T10:52:44;25.70;84.00
58666;DHT22;44436;52.872;6.520;2022-08-19T10:55:10;25.70;83.50
58666;DHT22;44436;52.872;6.520;2022-08-19T10:57:54;25.80;83.30
58666;DHT22;44436;52.872;6.520;2022-08-19T11:00:22;25.90;83.70
58666;DHT22;44436;52.872;6.520;2022-08-19T11:02:48;26.00;82.70
58666;DHT22;44436;52.872;6.520;2022-08-19T11:05:14;26.00;83.30
58666;DHT22;44436;52.872;6.520;2022-08-19T11:07:41;26.00;83.70
58666;DHT22;44436;52.872;6.520;2022-08-19T11:10:09;25.90;84.30
58666;DHT22;44436;52.872;6.520;2022-08-19T11:12:39;25.90;85.50
58666;DHT22;44436;52.872;6.520;2022-08-19T11:15:07;25.90;85.00
58666;DHT22;44436;52.872;6.520;2022-08-19T11:17:34;25.90;85.60
58666;DHT22;44436;52.872;6.520;2022-08-19T11:20:01;25.80;85.20
58666;DHT22;44436;52.872;6.520;2022-08-19T11:22:30;25.80;85.40
58666;DHT22;44436;52.872;6.520;2022-08-19T11:24:55;25.90;85.70
58666;DHT22;44436;52.872;6.520;2022-08-19T11:27:21;26.00;85.40
58666;DHT22;44436;52.872;6.520;2022-08-19T11:29:46;26.10;85.30
58666;DHT22;44436;52.872;6.520;2022-08-19T11:32:12;26.30;85.20
58666;DHT22;44436;52.872;6.520;2022-08-19T11:34:38;26.40;84.40
58666;DHT22;44436;52.872;6.520;2022-08-19T11:37:05;26.40;84.60
58666;DHT22;44436;52.872;6.520;2022-08-19T11:39:32;26.50;84.20
58666;DHT22;44436;52.872;6.520;2022-08-19T11:41:59;26.50;83.70
58666;DHT22;44436;52.872;6.520;2022-08-19T11:44:26;26.60;83.10
58666;DHT22;44436;52.872;6.520;2022-08-19T11:46:56;26.60;82.10
58666;DHT22;44436;52.872;6.520;2022-08-19T11:49:23;26.60;81.70
58666;DHT22;44436;52.872;6.520;2022-08-19T11:51:48;26.60;81.90
58666;DHT22;44436;52.872;6.520;2022-08-19T11:54:17;26.60;80.20
58666;DHT22;44436;52.872;6.520;2022-08-19T11:56:43;26.60;78.70
58666;DHT22;44436;52.872;6.520;2022-08-19T11:59:12;26.60;78.20
58666;DHT22;44436;52.872;6.520;2022-08-19T12:01:37;26.60;78.50
58666;DHT22;44436;52.872;6.520;2022-08-19T12:04:06;26.70;79.20
58666;DHT22;44436;52.872;6.520;2022-08-19T12:06:32;26.70;80.00
58666;DHT22;44436;52.872;6.520;2022-08-19T12:09:03;26.60;79.00
58666;DHT22;44436;52.872;6.520;2022-08-19T12:11:29;26.70;79.50
58666;DHT22;44436;52.872;6.520;2022-08-19T12:13:55;26.80;80.20
58666;DHT22;44436;52.872;6.520;2022-08-19T12:16:23;27.00;80.40
58666;DHT22;44436;52.872;6.520;2022-08-19T12:18:50;27.20;78.40
58666;DHT22;44436;52.872;6.520;2022-08-19T12:21:22;27.30;76.90
58666;DHT22;44436;52.872;6.520;2022-08-19T12:23:49;27.30;77.60
58666;DHT22;44436;52.872;6.520;2022-08-19T12:26:16;27.40;76.00
58666;DHT22;44436;52.872;6.520;2022-08-19T12:28:42;27.50;72.90
58666;DHT22;44436;52.872;6.520;2022-08-19T12:31:09;27.50;73.10
58666;DHT22;44436;52.872;6.520;2022-08-19T12:33:37;27.70;72.70
58666;DHT22;44436;52.872;6.520;2022-08-19T12:36:05;27.80;72.10
58666;DHT22;44436;52.872;6.520;2022-08-19T12:38:32;27.90;70.10
58666;DHT22;44436;52.872;6.520;2022-08-19T12:40:59;27.90;70.20
58666;DHT22;44436;52.872;6.520;2022-08-19T12:43:25;27.90;69.80
58666;DHT22;44436;52.872;6.520;2022-08-19T12:45:51;27.90;69.80
58666;DHT22;44436;52.872;6.520;2022-08-19T12:48:17;28.00;70.60
58666;DHT22;44436;52.872;6.520;2022-08-19T12:50:44;28.00;69.90
58666;DHT22;44436;52.872;6.520;2022-08-19T12:53:11;28.00;69.30
58666;DHT22;44436;52.872;6.520;2022-08-19T12:55:37;28.00;70.30
58666;DHT22;44436;52.872;6.520;2022-08-19T12:58:03;28.10;69.50
58666;DHT22;44436;52.872;6.520;2022-08-19T13:00:28;28.00;68.90
58666;DHT22;44436;52.872;6.520;2022-08-19T13:02:54;28.10;69.60
58666;DHT22;44436;52.872;6.520;2022-08-19T13:05:24;28.20;71.30
58666;DHT22;44436;52.872;6.520;2022-08-19T13:07:52;28.40;68.60
58666;DHT22;44436;52.872;6.520;2022-08-19T13:10:19;28.50;67.90
58666;DHT22;44436;52.872;6.520;2022-08-19T13:12:48;28.50;67.50
58666;DHT22;44436;52.872;6.520;2022-08-19T13:15:15;28.70;67.30
58666;DHT22;44436;52.872;6.520;2022-08-19T13:17:43;28.70;65.70
58666;DHT22;44436;52.872;6.520;2022-08-19T13:20:10;28.50;66.40
58666;DHT22;44436;52.872;6.520;2022-08-19T13:22:36;28.50;67.90
58666;DHT22;44436;52.872;6.520;2022-08-19T13:25:03;28.40;67.90
58666;DHT22;44436;52.872;6.520;2022-08-19T13:27:30;28.20;68.10
58666;DHT22;44436;52.872;6.520;2022-08-19T13:29:56;28.10;68.40
58666;DHT22;44436;52.872;6.520;2022-08-19T13:32:40;28.00;68.20
58666;DHT22;44436;52.872;6.520;2022-08-19T13:35:25;27.80;67.60
58666;DHT22;44436;52.872;6.520;2022-08-19T13:37:50;27.60;68.40
58666;DHT22;44436;52.872;6.520;2022-08-19T13:40:19;27.50;68.40
58666;DHT22;44436;52.872;6.520;2022-08-19T13:42:48;27.40;69.40
58666;DHT22;44436;52.872;6.520;2022-08-19T13:45:16;27.40;70.40
58666;DHT22;44436;52.872;6.520;2022-08-19T13:47:48;27.50;71.30
58666;DHT22;44436;52.872;6.520;2022-08-19T13:50:24;27.50;71.20
58666;DHT22;44436;52.872;6.520;2022-08-19T13:52:51;27.40;70.50
58666;DHT22;44436;52.872;6.520;2022-08-19T13:55:18;27.20;71.30
58666;DHT22;44436;52.872;6.520;2022-08-19T13:57:44;27.10;72.00
58666;DHT22;44436;52.872;6.520;2022-08-19T14:00:13;27.00;72.30
58666;DHT22;44436;52.872;6.520;2022-08-19T14:02:39;26.90;73.00
58666;DHT22;44436;52.872;6.520;2022-08-19T14:05:08;26.80;74.60
58666;DHT22;44436;52.872;6.520;2022-08-19T14:07:34;26.80;75.20
58666;DHT22;44436;52.872;6.520;2022-08-19T14:10:00;26.80;76.60
58666;DHT22;44436;52.872;6.520;2022-08-19T14:12:26;26.80;77.80
58666;DHT22;44436;52.872;6.520;2022-08-19T14:14:51;26.80;77.40
58666;DHT22;44436;52.872;6.520;2022-08-19T14:17:17;27.00;76.60
58666;DHT22;44436;52.872;6.520;2022-08-19T14:19:43;27.20;76.10
58666;DHT22;44436;52.872;6.520;2022-08-19T14:22:09;27.30;76.30
58666;DHT22;44436;52.872;6.520;2022-08-19T14:24:37;27.60;76.20
58666;DHT22;44436;52.872;6.520;2022-08-19T14:27:02;27.90;75.10
58666;DHT22;44436;52.872;6.520;2022-08-19T14:29:28;28.10;73.60
58666;DHT22;44436;52.872;6.520;2022-08-19T14:31:55;28.30;73.10
58666;DHT22;44436;52.872;6.520;2022-08-19T14:34:21;28.40;72.50
58666;DHT22;44436;52.872;6.520;2022-08-19T14:36:47;28.40;72.30
58666;DHT22;44436;52.872;6.520;2022-08-19T14:39:13;28.30;72.80
58666;DHT22;44436;52.872;6.520;2022-08-19T14:41:40;28.20;74.00
58666;DHT22;44436;52.872;6.520;2022-08-19T14:44:06;28.20;74.60
58666;DHT22;44436;52.872;6.520;2022-08-19T14:46:32;28.20;75.00
58666;DHT22;44436;52.872;6.520;2022-08-19T14:48:58;28.20;75.30
58666;DHT22;44436;52.872;6.520;2022-08-19T14:51:24;28.10;75.90
58666;DHT22;44436;52.872;6.520;2022-08-19T14:53:52;28.20;75.70
58666;DHT22;44436;52.872;6.520;2022-08-19T14:56:20;28.10;75.40
58666;DHT22;44436;52.872;6.520;2022-08-19T14:58:46;28.10;75.40
58666;DHT22;44436;52.872;6.520;2022-08-19T15:01:12;28.20;76.30
58666;DHT22;44436;52.872;6.520;2022-08-19T15:03:39;28.10;76.90
58666;DHT22;44436;52.872;6.520;2022-08-19T15:06:06;28.10;77.30
58666;DHT22;44436;52.872;6.520;2022-08-19T15:08:34;28.10;77.70
58666;DHT22;44436;52.872;6.520;2022-08-19T15:11:02;28.00;78.00
58666;DHT22;44436;52.872;6.520;2022-08-19T15:13:29;27.90;79.20
58666;DHT22;44436;52.872;6.520;2022-08-19T15:15:55;27.80;78.50
58666;DHT22;44436;52.872;6.520;2022-08-19T15:18:22;27.80;78.70
58666;DHT22;44436;52.872;6.520;2022-08-19T15:20:49;27.60;78.00
58666;DHT22;44436;52.872;6.520;2022-08-19T15:23:16;27.60;78.00
58666;DHT22;44436;52.872;6.520;2022-08-19T15:25:42;27.50;78.20
58666;DHT22;44436;52.872;6.520;2022-08-19T15:28:09;27.50;78.10
58666;DHT22;44436;52.872;6.520;2022-08-19T15:30:38;27.50;78.30
58666;DHT22;44436;52.872;6.520;2022-08-19T15:33:04;27.50;78.60
58666;DHT22;44436;52.872;6.520;2022-08-19T15:35:30;27.50;78.20
58666;DHT22;44436;52.872;6.520;2022-08-19T15:37:56;27.50;76.80
58666;DHT22;44436;52.872;6.520;2022-08-19T15:40:23;27.50;77.60
58666;DHT22;44436;52.872;6.520;2022-08-19T15:42:49;27.50;76.80